Time;durP1;ratioP1;P1;durP2;ratioP2;P2;SDS_P1;SDS_P2;PMS_P1;PMS_P2;Temp;Humidity;BMP_temperature;BMP_pressure;BME280_temperature;BME280_humidity;BME280_pressure;Samples;Min_cycle;Max_cycle;Signal;HPM_P1;HPM_P2
2023/07/08 00:01:22;;;;;;;;;;;26.00;56.40;;;;;;5134293;27;43512;-79
2023/07/08 00:03:48;;;;;;;;;;;26.00;55.80;;;;;;5145977;27;42881;-79
2023/07/08 00:06:25;;;;;;;;;;;26.00;55.70;;;;;;5146957;27;42962;-79
2023/07/08 00:08:51;;;;;;;;;;;26.10;55.50;;;;;;5144381;27;43021;-78
2023/07/08 00:11:16;;;;;;;;;;;26.10;55.40;;;;;;5107762;27;43975;-80
2023/07/08 00:13:42;;;;;;;;;;;26.10;55.80;;;;;;5142349;27;42979;-79
2023/07/08 00:16:11;;;;;;;;;;;26.10;55.30;;;;;;5146350;27;43752;-79
2023/07/08 00:18:37;;;;;;;;;;;26.10;55.70;;;;;;5127122;27;43013;-78
2023/07/08 00:21:08;;;;;;;;;;;26.10;55.10;;;;;;5146045;27;43000;-79
2023/07/08 00:23:35;;;;;;;;;;;25.90;55.10;;;;;;5146156;27;42852;-79
2023/07/08 00:26:01;;;;;;;;;;;26.00;55.70;;;;;;5145924;27;43195;-78
2023/07/08 00:28:27;;;;;;;;;;;26.00;55.70;;;;;;5146107;27;43085;-79
2023/07/08 00:30:53;;;;;;;;;;;26.00;55.60;;;;;;5146882;27;42892;-80
2023/07/08 00:33:19;;;;;;;;;;;26.00;55.00;;;;;;5145398;27;42946;-79
2023/07/08 00:35:45;;;;;;;;;;;26.00;55.40;;;;;;5145847;27;42930;-78
2023/07/08 00:38:20;;;;;;;;;;;26.00;55.00;;;;;;5145239;27;43129;-78
2023/07/08 00:40:50;;;;;;;;;;;26.00;55.20;;;;;;5127313;27;43612;-79
2023/07/08 00:43:16;;;;;;;;;;;25.90;55.80;;;;;;5126897;27;42799;-79
2023/07/08 00:45:46;;;;;;;;;;;25.80;55.50;;;;;;5149730;27;42986;-79
2023/07/08 00:48:17;;;;;;;;;;;25.90;55.40;;;;;;5136193;27;43769;-79
2023/07/08 00:50:43;;;;;;;;;;;25.90;55.40;;;;;;5150013;27;43076;-79
2023/07/08 00:53:26;;;;;;;;;;;25.90;55.90;;;;;;5149946;27;43031;-79
2023/07/08 00:55:57;;;;;;;;;;;25.90;55.90;;;;;;5148880;27;43015;-78
2023/07/08 00:58:24;;;;;;;;;;;25.90;56.00;;;;;;5139552;27;42945;-78
2023/07/08 01:00:51;;;;;;;;;;;25.90;55.50;;;;;;5129360;27;43148;-79
2023/07/08 01:03:17;;;;;;;;;;;26.00;55.80;;;;;;5140457;27;43131;-79
2023/07/08 01:05:43;;;;;;;;;;;25.90;55.30;;;;;;5126561;27;44766;-79
2023/07/08 01:08:09;;;;;;;;;;;26.00;55.80;;;;;;5140391;27;42960;-79
2023/07/08 01:10:46;;;;;;;;;;;26.00;55.80;;;;;;5130489;27;42842;-78
2023/07/08 01:13:14;;;;;;;;;;;26.00;55.40;;;;;;5141747;27;43772;-79
2023/07/08 01:15:41;;;;;;;;;;;26.00;55.20;;;;;;5143015;27;43490;-78
2023/07/08 01:18:08;;;;;;;;;;;26.00;55.70;;;;;;5141710;27;42896;-79
2023/07/08 01:20:33;;;;;;;;;;;25.90;55.40;;;;;;5142900;27;43681;-78
2023/07/08 01:22:59;;;;;;;;;;;25.90;54.80;;;;;;5129611;27;43046;-79
2023/07/08 01:25:25;;;;;;;;;;;25.90;55.10;;;;;;5134718;27;42969;-79
2023/07/08 01:27:53;;;;;;;;;;;25.80;54.60;;;;;;5149081;27;42884;-79
2023/07/08 01:30:18;;;;;;;;;;;25.80;55.30;;;;;;5124651;27;43692;-78
2023/07/08 01:32:49;;;;;;;;;;;25.90;55.30;;;;;;5120125;27;43165;-79
2023/07/08 01:35:15;;;;;;;;;;;25.90;55.00;;;;;;5128323;27;42936;-79
2023/07/08 01:37:42;;;;;;;;;;;25.80;54.90;;;;;;5142134;27;42953;-79
2023/07/08 01:40:15;;;;;;;;;;;25.90;54.40;;;;;;5135791;27;43511;-79
2023/07/08 01:42:40;;;;;;;;;;;25.80;54.90;;;;;;5148664;27;42955;-79
2023/07/08 01:45:10;;;;;;;;;;;25.80;54.90;;;;;;5148810;27;43043;-79
2023/07/08 01:47:36;;;;;;;;;;;25.80;55.50;;;;;;5147504;27;43301;-79
2023/07/08 01:50:01;;;;;;;;;;;25.70;55.40;;;;;;5141251;27;43591;-79
2023/07/08 01:52:27;;;;;;;;;;;25.70;55.50;;;;;;5128670;27;42881;-79
2023/07/08 01:54:56;;;;;;;;;;;25.70;56.10;;;;;;5128227;27;42824;-79
2023/07/08 01:57:21;;;;;;;;;;;25.60;56.10;;;;;;5129662;27;42790;-78
2023/07/08 01:59:47;;;;;;;;;;;25.60;55.90;;;;;;5140864;27;42981;-79
2023/07/08 02:02:13;;;;;;;;;;;25.60;56.40;;;;;;5128611;27;43024;-79
2023/07/08 02:04:38;;;;;;;;;;;25.70;55.90;;;;;;5136121;27;42990;-78
2023/07/08 02:07:04;;;;;;;;;;;25.60;55.80;;;;;;5147619;27;43367;-79
2023/07/08 02:09:30;;;;;;;;;;;25.60;56.30;;;;;;5148004;27;42959;-79
2023/07/08 02:11:56;;;;;;;;;;;25.60;55.80;;;;;;5134859;27;43091;-79
2023/07/08 02:14:22;;;;;;;;;;;25.70;55.90;;;;;;5147063;27;43011;-80
2023/07/08 02:16:47;;;;;;;;;;;25.60;55.90;;;;;;5134711;27;43071;-79
2023/07/08 02:19:13;;;;;;;;;;;25.60;56.40;;;;;;5148056;27;43688;-79
2023/07/08 02:21:39;;;;;;;;;;;25.60;56.00;;;;;;5135264;27;42927;-78
2023/07/08 02:24:04;;;;;;;;;;;25.60;55.90;;;;;;5129075;27;42985;-78
2023/07/08 02:26:33;;;;;;;;;;;25.60;55.90;;;;;;5142472;27;43000;-79
2023/07/08 02:28:59;;;;;;;;;;;25.70;56.50;;;;;;5140095;27;42837;-79
2023/07/08 02:31:24;;;;;;;;;;;25.70;55.80;;;;;;5147066;27;43123;-81
2023/07/08 02:33:50;;;;;;;;;;;25.80;55.60;;;;;;5148508;27;43349;-80
2023/07/08 02:36:16;;;;;;;;;;;25.80;56.10;;;;;;5147888;27;42817;-80
2023/07/08 02:38:41;;;;;;;;;;;25.80;55.50;;;;;;5146700;27;42979;-80
2023/07/08 02:41:07;;;;;;;;;;;25.80;55.30;;;;;;5141389;27;43004;-80
2023/07/08 02:43:32;;;;;;;;;;;25.90;55.10;;;;;;5143379;27;43671;-79
2023/07/08 02:45:58;;;;;;;;;;;25.80;54.90;;;;;;5148059;27;42778;-80
2023/07/08 02:48:23;;;;;;;;;;;25.80;55.30;;;;;;5147459;27;42917;-80
2023/07/08 02:50:49;;;;;;;;;;;25.80;55.20;;;;;;5141891;27;42913;-79
2023/07/08 02:53:14;;;;;;;;;;;25.70;54.60;;;;;;5139910;27;43950;-80
2023/07/08 02:55:42;;;;;;;;;;;25.70;54.60;;;;;;5147238;27;42883;-79
2023/07/08 02:58:09;;;;;;;;;;;25.60;55.10;;;;;;5147710;27;43423;-79
2023/07/08 03:00:37;;;;;;;;;;;25.60;54.70;;;;;;5147240;27;42997;-79
2023/07/08 03:03:03;;;;;;;;;;;25.60;55.10;;;;;;5147798;27;43542;-80
2023/07/08 03:05:29;;;;;;;;;;;25.60;55.00;;;;;;5135168;27;43091;-80
2023/07/08 03:07:54;;;;;;;;;;;25.60;54.90;;;;;;5131663;27;42972;-80
2023/07/08 03:10:20;;;;;;;;;;;25.60;54.90;;;;;;5147722;27;42896;-80
2023/07/08 03:12:45;;;;;;;;;;;25.70;54.80;;;;;;5147566;27;43153;-80
2023/07/08 03:15:11;;;;;;;;;;;25.60;54.80;;;;;;5147931;27;42849;-80
2023/07/08 03:17:36;;;;;;;;;;;25.60;54.80;;;;;;5146287;27;42901;-80
2023/07/08 03:20:04;;;;;;;;;;;25.60;54.90;;;;;;5147057;27;42985;-79
2023/07/08 03:22:30;;;;;;;;;;;25.60;54.30;;;;;;5146840;27;43587;-79
2023/07/08 03:24:55;;;;;;;;;;;25.60;54.80;;;;;;5147164;27;43037;-80
2023/07/08 03:27:23;;;;;;;;;;;25.60;54.30;;;;;;5145625;27;42925;-80
2023/07/08 03:29:49;;;;;;;;;;;25.60;54.40;;;;;;5145633;27;43489;-79
2023/07/08 03:32:14;;;;;;;;;;;25.60;55.00;;;;;;5125866;27;44293;-79
2023/07/08 03:34:40;;;;;;;;;;;25.50;55.00;;;;;;5146866;27;42922;-79
2023/07/08 03:37:06;;;;;;;;;;;25.50;55.10;;;;;;5127578;27;43391;-80
2023/07/08 03:39:31;;;;;;;;;;;25.50;55.10;;;;;;5138367;27;42978;-80
2023/07/08 03:41:57;;;;;;;;;;;25.40;55.10;;;;;;5146874;27;43454;-80
2023/07/08 03:44:23;;;;;;;;;;;25.40;55.30;;;;;;5147158;27;42894;-79
2023/07/08 03:46:49;;;;;;;;;;;25.40;54.70;;;;;;5146219;27;43993;-80
2023/07/08 03:49:15;;;;;;;;;;;25.40;55.10;;;;;;5146500;27;42908;-79
2023/07/08 03:51:41;;;;;;;;;;;25.40;55.00;;;;;;5146320;27;43028;-80
2023/07/08 03:54:08;;;;;;;;;;;25.40;54.80;;;;;;5146529;27;43042;-79
2023/07/08 03:56:34;;;;;;;;;;;25.20;55.00;;;;;;5132876;27;43053;-80
2023/07/08 03:59:00;;;;;;;;;;;25.40;55.20;;;;;;5146919;27;42931;-79
2023/07/08 04:01:25;;;;;;;;;;;25.40;55.30;;;;;;5146174;27;43073;-79
2023/07/08 04:03:52;;;;;;;;;;;25.40;55.90;;;;;;5147106;27;42967;-80
2023/07/08 04:06:18;;;;;;;;;;;25.30;55.40;;;;;;5128117;27;44032;-79
2023/07/08 04:08:44;;;;;;;;;;;25.40;55.60;;;;;;5126990;27;43006;-81
2023/07/08 04:11:13;;;;;;;;;;;25.30;56.00;;;;;;5127761;27;43704;-81
2023/07/08 04:13:38;;;;;;;;;;;25.30;55.70;;;;;;5126680;27;42968;-80
2023/07/08 04:16:05;;;;;;;;;;;25.40;55.80;;;;;;5107759;27;45592;-79
2023/07/08 04:18:30;;;;;;;;;;;22.60;54.60;;;;;;5137687;27;43048;-81
2023/07/08 04:20:56;;;;;;;;;;;25.20;55.90;;;;;;5127583;27;43502;-79
2023/07/08 04:23:22;;;;;;;;;;;25.30;56.00;;;;;;5138115;27;42910;-81
2023/07/08 04:25:48;;;;;;;;;;;25.30;56.00;;;;;;5127465;27;43090;-79
2023/07/08 04:28:13;;;;;;;;;;;25.30;56.10;;;;;;5126341;27;42997;-80
2023/07/08 04:30:41;;;;;;;;;;;25.40;56.20;;;;;;5144496;27;43140;-80
2023/07/08 04:33:16;;;;;;;;;;;25.40;56.50;;;;;;5146384;27;43070;-80
2023/07/08 04:35:43;;;;;;;;;;;25.50;56.30;;;;;;5146299;27;42995;-80
2023/07/08 04:38:27;;;;;;;;;;;25.50;55.70;;;;;;5145550;27;43192;-80
2023/07/08 04:40:53;;;;;;;;;;;25.50;55.60;;;;;;5134899;27;43256;-80
2023/07/08 04:43:19;;;;;;;;;;;25.60;55.40;;;;;;5127090;27;42950;-80
2023/07/08 04:45:45;;;;;;;;;;;25.60;55.80;;;;;;5146404;27;43419;-80
2023/07/08 04:48:12;;;;;;;;;;;25.60;55.60;;;;;;5146020;27;43004;-80
2023/07/08 04:50:43;;;;;;;;;;;25.60;55.10;;;;;;5136570;27;43048;-80
2023/07/08 04:53:09;;;;;;;;;;;25.60;55.00;;;;;;5142136;27;43235;-80
2023/07/08 04:55:35;;;;;;;;;;;25.70;55.10;;;;;;5145219;27;42919;-80
2023/07/08 04:58:01;;;;;;;;;;;25.60;55.00;;;;;;5145588;27;43006;-80
2023/07/08 05:00:27;;;;;;;;;;;25.70;55.00;;;;;;5146520;27;43411;-80
2023/07/08 05:02:54;;;;;;;;;;;25.80;55.00;;;;;;5146082;27;42997;-80
2023/07/08 05:05:19;;;;;;;;;;;25.70;54.90;;;;;;5145797;27;42889;-80
2023/07/08 05:07:45;;;;;;;;;;;25.70;55.50;;;;;;5145172;27;42951;-80
2023/07/08 05:10:10;;;;;;;;;;;25.60;55.50;;;;;;5145220;27;42939;-80
2023/07/08 05:12:36;;;;;;;;;;;25.60;55.90;;;;;;5145518;27;42926;-80
2023/07/08 05:15:02;;;;;;;;;;;25.60;56.40;;;;;;5144458;27;43710;-80
2023/07/08 05:17:28;;;;;;;;;;;25.60;56.50;;;;;;5143823;27;43210;-79
2023/07/08 05:19:54;;;;;;;;;;;25.60;56.40;;;;;;5144785;27;43544;-79
2023/07/08 05:22:25;;;;;;;;;;;25.70;55.80;;;;;;5144749;27;42955;-80
2023/07/08 05:24:52;;;;;;;;;;;25.70;56.20;;;;;;5145952;27;43410;-80
2023/07/08 05:27:18;;;;;;;;;;;25.70;55.60;;;;;;5140095;27;42980;-81
2023/07/08 05:29:45;;;;;;;;;;;25.70;55.60;;;;;;5136391;27;43647;-80
2023/07/08 05:32:11;;;;;;;;;;;25.60;56.20;;;;;;5148129;27;42954;-79
2023/07/08 05:34:36;;;;;;;;;;;25.70;55.80;;;;;;5148750;27;43349;-79
2023/07/08 05:37:03;;;;;;;;;;;25.60;55.80;;;;;;5148816;27;42841;-80
2023/07/08 05:39:29;;;;;;;;;;;25.70;56.30;;;;;;5148997;27;42922;-80
2023/07/08 05:41:55;;;;;;;;;;;25.70;56.40;;;;;;5143570;27;42966;-80
2023/07/08 05:44:20;;;;;;;;;;;25.70;56.00;;;;;;5139742;27;43628;-80
2023/07/08 05:46:46;;;;;;;;;;;25.80;56.30;;;;;;5130859;27;42877;-80
2023/07/08 05:49:11;;;;;;;;;;;25.70;56.20;;;;;;5139635;27;43490;-80
2023/07/08 05:51:37;;;;;;;;;;;25.80;56.10;;;;;;5134866;27;42926;-79
2023/07/08 05:54:03;;;;;;;;;;;25.80;56.00;;;;;;5149331;27;43506;-79
2023/07/08 05:56:30;;;;;;;;;;;25.80;55.50;;;;;;5148391;27;42955;-80
2023/07/08 05:58:56;;;;;;;;;;;25.80;56.00;;;;;;5137344;27;42978;-81
2023/07/08 06:01:21;;;;;;;;;;;25.80;56.40;;;;;;5132775;27;42960;-80
2023/07/08 06:03:47;;;;;;;;;;;25.80;56.40;;;;;;5138025;27;43033;-79
2023/07/08 06:06:12;;;;;;;;;;;25.90;56.50;;;;;;5127976;27;42893;-80
2023/07/08 06:08:38;;;;;;;;;;;25.80;56.10;;;;;;5138447;27;43029;-80
2023/07/08 06:11:04;;;;;;;;;;;25.90;56.60;;;;;;5143540;27;43079;-80
2023/07/08 06:13:29;;;;;;;;;;;25.90;56.60;;;;;;5138629;27;42915;-81
2023/07/08 06:15:55;;;;;;;;;;;25.90;56.40;;;;;;5134395;27;43625;-80
2023/07/08 06:18:20;;;;;;;;;;;25.90;56.40;;;;;;5137245;27;42965;-79
2023/07/08 06:20:53;;;;;;;;;;;26.00;57.20;;;;;;5127460;27;43055;-80
2023/07/08 06:23:18;;;;;;;;;;;26.00;57.30;;;;;;5139654;27;42947;-80
2023/07/08 06:25:44;;;;;;;;;;;25.90;56.70;;;;;;5147819;27;43124;-80
2023/07/08 06:28:09;;;;;;;;;;;25.90;57.10;;;;;;5148033;27;43466;-79
2023/07/08 06:30:35;;;;;;;;;;;26.00;57.10;;;;;;5147565;27;43238;-80
2023/07/08 06:33:00;;;;;;;;;;;25.90;56.60;;;;;;5148282;27;42949;-80
2023/07/08 06:35:25;;;;;;;;;;;26.00;56.60;;;;;;5128480;27;43069;-79
2023/07/08 06:37:51;;;;;;;;;;;26.00;57.10;;;;;;5147757;27;42929;-79
2023/07/08 06:40:19;;;;;;;;;;;26.00;56.70;;;;;;5139254;27;42838;-80
2023/07/08 06:42:45;;;;;;;;;;;26.00;57.40;;;;;;5126822;27;43329;-80
2023/07/08 06:45:10;;;;;;;;;;;26.00;57.20;;;;;;5136971;27;42970;-80
2023/07/08 06:47:36;;;;;;;;;;;26.00;57.70;;;;;;5131234;27;43857;-79
2023/07/08 06:50:02;;;;;;;;;;;26.00;58.00;;;;;;5136909;27;43004;-79
2023/07/08 06:52:33;;;;;;;;;;;26.10;58.50;;;;;;5145758;27;43445;-80
2023/07/08 06:55:00;;;;;;;;;;;26.00;58.10;;;;;;5137314;27;42952;-79
2023/07/08 06:57:25;;;;;;;;;;;26.00;58.00;;;;;;5144898;27;42978;-80
2023/07/08 06:59:51;;;;;;;;;;;26.10;57.90;;;;;;5137808;27;42904;-80
2023/07/08 07:02:17;;;;;;;;;;;26.00;58.50;;;;;;5147593;27;42959;-80
2023/07/08 07:04:42;;;;;;;;;;;26.10;57.90;;;;;;5148342;27;43129;-80
2023/07/08 07:07:08;;;;;;;;;;;26.10;58.40;;;;;;5148130;27;42928;-80
2023/07/08 07:09:33;;;;;;;;;;;26.00;57.80;;;;;;5148117;27;42916;-79
2023/07/08 07:11:59;;;;;;;;;;;26.00;58.30;;;;;;5147236;27;42855;-81
2023/07/08 07:14:24;;;;;;;;;;;26.00;57.70;;;;;;5148021;27;42840;-80
2023/07/08 07:16:50;;;;;;;;;;;26.10;57.30;;;;;;5146905;27;44066;-80
2023/07/08 07:19:15;;;;;;;;;;;26.10;58.00;;;;;;5147036;27;43159;-79
2023/07/08 07:21:41;;;;;;;;;;;26.10;57.20;;;;;;5147226;27;43044;-79
2023/07/08 07:24:07;;;;;;;;;;;26.10;57.20;;;;;;5147387;27;42961;-79
2023/07/08 07:26:32;;;;;;;;;;;26.10;57.10;;;;;;5146327;27;43990;-79
2023/07/08 07:28:58;;;;;;;;;;;26.10;57.20;;;;;;5147106;27;43120;-80
2023/07/08 07:31:24;;;;;;;;;;;26.10;57.50;;;;;;5130220;27;43112;-80
2023/07/08 07:33:49;;;;;;;;;;;26.10;56.90;;;;;;5136981;27;42926;-79
2023/07/08 07:36:15;;;;;;;;;;;26.10;57.00;;;;;;5147214;27;42925;-79
2023/07/08 07:38:40;;;;;;;;;;;26.10;57.00;;;;;;5127450;27;43058;-79
2023/07/08 07:41:06;;;;;;;;;;;26.10;57.80;;;;;;5145189;27;43033;-81
2023/07/08 07:43:33;;;;;;;;;;;26.00;57.80;;;;;;5140289;27;42971;-80
2023/07/08 07:45:59;;;;;;;;;;;26.10;57.20;;;;;;5114625;27;44402;-81
2023/07/08 07:48:25;;;;;;;;;;;26.10;57.00;;;;;;5143199;27;44321;-80
2023/07/08 07:50:53;;;;;;;;;;;26.10;56.70;;;;;;5141621;27;42890;-80
2023/07/08 07:53:19;;;;;;;;;;;26.10;57.20;;;;;;5140974;27;42959;-80
2023/07/08 07:55:44;;;;;;;;;;;26.10;57.10;;;;;;5133774;27;42958;-79
2023/07/08 07:58:11;;;;;;;;;;;26.10;56.90;;;;;;5143190;27;42971;-79
2023/07/08 08:00:37;;;;;;;;;;;26.20;56.90;;;;;;5132792;27;43057;-79
2023/07/08 08:03:03;;;;;;;;;;;26.10;56.30;;;;;;5135546;27;42924;-79
2023/07/08 08:05:29;;;;;;;;;;;26.10;56.20;;;;;;5143716;27;43437;-79
2023/07/08 08:07:54;;;;;;;;;;;26.10;56.60;;;;;;5141194;27;42924;-79
2023/07/08 08:10:20;;;;;;;;;;;26.20;56.20;;;;;;5125493;27;42756;-79
2023/07/08 08:12:48;;;;;;;;;;;26.20;56.60;;;;;;5144139;27;42942;-80
2023/07/08 08:15:13;;;;;;;;;;;26.20;56.50;;;;;;5146183;27;42927;-79
2023/07/08 08:17:39;;;;;;;;;;;26.20;56.30;;;;;;5146384;27;42920;-79
2023/07/08 08:20:05;;;;;;;;;;;26.20;55.80;;;;;;5146961;27;43838;-79
2023/07/08 08:22:30;;;;;;;;;;;26.20;55.70;;;;;;5127232;27;43053;-76
2023/07/08 08:24:56;;;;;;;;;;;26.20;56.20;;;;;;5146601;27;43193;-80
2023/07/08 08:27:21;;;;;;;;;;;26.20;55.70;;;;;;5140887;27;42748;-80
2023/07/08 08:29:47;;;;;;;;;;;26.20;55.80;;;;;;5125494;27;42892;-79
2023/07/08 08:32:14;;;;;;;;;;;26.20;55.80;;;;;;5131065;27;43406;-78
2023/07/08 08:34:39;;;;;;;;;;;26.20;55.90;;;;;;5146288;27;42810;-79
2023/07/08 08:37:05;;;;;;;;;;;26.20;56.40;;;;;;5141392;27;42972;-80
2023/07/08 08:39:30;;;;;;;;;;;26.20;55.80;;;;;;5126341;27;42913;-79
2023/07/08 08:41:56;;;;;;;;;;;26.20;56.30;;;;;;5125843;27;42951;-80
2023/07/08 08:44:28;;;;;;;;;;;26.30;55.50;;;;;;5137558;27;43301;-80
2023/07/08 08:47:16;;;;;;;;;;;26.30;55.30;;;;;;5140852;27;43037;-78
2023/07/08 08:49:47;;;;;;;;;;;26.30;55.70;;;;;;5138495;27;42963;-78
2023/07/08 08:52:13;;;;;;;;;;;26.30;55.10;;;;;;5125951;27;42957;-78
2023/07/08 08:54:39;;;;;;;;;;;26.30;54.40;;;;;;5140684;27;43116;-78
2023/07/08 08:57:16;;;;;;;;;;;26.30;54.30;;;;;;5146283;27;42866;-78
2023/07/08 08:59:50;;;;;;;;;;;26.30;54.00;;;;;;5145788;27;42970;-79
2023/07/08 09:02:30;;;;;;;;;;;26.30;53.00;;;;;;5145821;27;42944;-78
2023/07/08 09:05:02;;;;;;;;;;;26.30;53.30;;;;;;5133359;27;42851;-80
2023/07/08 09:07:29;;;;;;;;;;;26.30;52.30;;;;;;5149259;27;42926;-78
2023/07/08 09:09:57;;;;;;;;;;;26.30;52.70;;;;;;5149293;27;43566;-79
2023/07/08 09:12:25;;;;;;;;;;;26.30;52.40;;;;;;5149069;27;42976;-80
2023/07/08 09:14:51;;;;;;;;;;;26.30;51.20;;;;;;5149462;27;43946;-79
2023/07/08 09:17:16;;;;;;;;;;;26.30;51.70;;;;;;5148647;27;43005;-77
2023/07/08 09:19:44;;;;;;;;;;;26.30;51.70;;;;;;5148950;27;43024;-78
2023/07/08 09:22:14;;;;;;;;;;;26.30;51.80;;;;;;5148768;27;43123;-78
2023/07/08 09:24:44;;;;;;;;;;;26.30;51.60;;;;;;5148716;27;43751;-79
2023/07/08 09:27:09;;;;;;;;;;;26.30;51.70;;;;;;5148337;27;42974;-79
2023/07/08 09:29:35;;;;;;;;;;;26.30;51.40;;;;;;5149605;27;43711;-79
2023/07/08 09:32:08;;;;;;;;;;;26.30;51.80;;;;;;5147893;27;43004;-79
2023/07/08 09:34:41;;;;;;;;;;;26.30;51.10;;;;;;5149193;27;42943;-78
2023/07/08 09:37:22;;;;;;;;;;;26.30;51.60;;;;;;5148949;27;43024;-80
2023/07/08 09:39:47;;;;;;;;;;;26.30;51.10;;;;;;5149372;27;42954;-80
2023/07/08 09:42:14;;;;;;;;;;;26.30;51.10;;;;;;5149660;27;43240;-80
2023/07/08 09:44:39;;;;;;;;;;;26.30;51.40;;;;;;5148585;27;42979;-80
2023/07/08 09:47:17;;;;;;;;;;;26.40;50.70;;;;;;5130369;27;43001;-81
2023/07/08 09:49:44;;;;;;;;;;;26.30;50.90;;;;;;5148518;27;43008;-80
2023/07/08 09:52:12;;;;;;;;;;;26.40;51.30;;;;;;5148930;27;42830;-78
2023/07/08 09:54:37;;;;;;;;;;;26.40;51.10;;;;;;5148305;27;42908;-80
2023/07/08 09:57:11;;;;;;;;;;;26.40;51.60;;;;;;5149082;27;42926;-79
2023/07/08 09:59:46;;;;;;;;;;;26.40;51.30;;;;;;5129828;27;43612;-80
2023/07/08 10:02:30;;;;;;;;;;;26.40;51.10;;;;;;5129919;27;42979;-78
2023/07/08 10:04:57;;;;;;;;;;;26.40;51.00;;;;;;5112514;27;43109;-80
2023/07/08 10:07:23;;;;;;;;;;;26.50;51.70;;;;;;5142399;27;42977;-80
2023/07/08 10:09:53;;;;;;;;;;;26.40;51.20;;;;;;5148569;27;42944;-81
2023/07/08 10:12:19;;;;;;;;;;;26.40;51.80;;;;;;5147309;27;42997;-79
2023/07/08 10:14:48;;;;;;;;;;;26.40;51.30;;;;;;5148097;27;42940;-80
2023/07/08 10:17:14;;;;;;;;;;;26.40;51.80;;;;;;5146401;27;43360;-79
2023/07/08 10:19:40;;;;;;;;;;;26.40;51.60;;;;;;5147637;27;43054;-80
2023/07/08 10:22:17;;;;;;;;;;;26.50;51.00;;;;;;5145764;27;42885;-79
2023/07/08 10:24:49;;;;;;;;;;;26.50;51.50;;;;;;5148038;27;43550;-80
2023/07/08 10:27:14;;;;;;;;;;;26.50;50.70;;;;;;5146447;27;42846;-80
2023/07/08 10:29:46;;;;;;;;;;;26.50;51.20;;;;;;5146139;27;43581;-80
2023/07/08 10:32:22;;;;;;;;;;;26.50;50.80;;;;;;5146814;27;42801;-79
2023/07/08 10:35:03;;;;;;;;;;;26.50;51.30;;;;;;5147657;27;43811;-79
2023/07/08 10:37:35;;;;;;;;;;;26.50;51.30;;;;;;5135641;27;43197;-80
2023/07/08 10:40:27;;;;;;;;;;;26.50;50.90;;;;;;5147661;27;43475;-79
2023/07/08 10:43:11;;;;;;;;;;;26.50;51.20;;;;;;5111000;27;43085;-79
2023/07/08 10:45:43;;;;;;;;;;;26.50;51.70;;;;;;5136368;27;42828;-79
2023/07/08 10:48:15;;;;;;;;;;;26.50;51.90;;;;;;5131987;27;42944;-80
2023/07/08 10:50:43;;;;;;;;;;;26.60;51.60;;;;;;5128007;27;43381;-80
2023/07/08 10:53:17;;;;;;;;;;;26.60;52.00;;;;;;5128538;27;42999;-80
2023/07/08 10:55:58;;;;;;;;;;;26.60;50.80;;;;;;5128248;27;43966;-79
2023/07/08 10:58:53;;;;;;;;;;;26.60;50.60;;;;;;5134296;27;43077;-78
2023/07/08 11:01:31;;;;;;;;;;;26.60;51.00;;;;;;5106015;27;43863;-79
2023/07/08 11:04:12;;;;;;;;;;;26.60;51.10;;;;;;5135605;27;43026;-79
2023/07/08 11:06:45;;;;;;;;;;;26.60;51.00;;;;;;5135612;27;43482;-78
2023/07/08 11:09:24;;;;;;;;;;;26.50;51.00;;;;;;5132666;27;43098;-80
2023/07/08 11:11:55;;;;;;;;;;;26.90;51.10;;;;;;5140364;27;42985;-79
2023/07/08 11:14:30;;;;;;;;;;;26.60;50.30;;;;;;5148164;27;42835;-79
2023/07/08 11:17:02;;;;;;;;;;;26.60;50.10;;;;;;5134777;27;43668;-80
2023/07/08 11:19:41;;;;;;;;;;;26.70;49.70;;;;;;5147888;27;42924;-78
2023/07/08 11:22:11;;;;;;;;;;;26.60;49.60;;;;;;5141594;27;43746;-80
2023/07/08 11:24:46;;;;;;;;;;;26.60;49.40;;;;;;5144058;27;43003;-79
2023/07/08 11:27:21;;;;;;;;;;;26.60;49.30;;;;;;5144397;27;42868;-81
2023/07/08 11:29:53;;;;;;;;;;;26.60;49.40;;;;;;5133595;27;43037;-80
2023/07/08 11:32:20;;;;;;;;;;;26.60;49.70;;;;;;5147207;27;42958;-79
2023/07/08 11:34:47;;;;;;;;;;;26.60;49.50;;;;;;5147262;27;42954;-79
2023/07/08 11:37:14;;;;;;;;;;;26.60;50.00;;;;;;5140333;27;43049;-80
2023/07/08 11:39:39;;;;;;;;;;;26.60;49.70;;;;;;5139263;27;42976;-80
2023/07/08 11:42:17;;;;;;;;;;;26.60;49.70;;;;;;5145654;27;42908;-79
2023/07/08 11:44:44;;;;;;;;;;;26.60;49.70;;;;;;5146341;27;42959;-78
2023/07/08 11:47:21;;;;;;;;;;;26.60;49.60;;;;;;5146914;27;43049;-78
2023/07/08 11:49:48;;;;;;;;;;;26.60;49.20;;;;;;5146854;27;43094;-79
2023/07/08 11:52:17;;;;;;;;;;;26.60;49.70;;;;;;5135460;27;42940;-78
2023/07/08 11:54:47;;;;;;;;;;;26.70;49.30;;;;;;5147081;27;42862;-78
2023/07/08 11:57:23;;;;;;;;;;;26.70;48.90;;;;;;5146264;27;45077;-79
2023/07/08 12:00:05;;;;;;;;;;;26.60;48.60;;;;;;5146380;27;42963;-78
2023/07/08 12:02:47;;;;;;;;;;;26.70;49.20;;;;;;5134410;27;43513;-79
2023/07/08 12:05:13;;;;;;;;;;;26.70;48.60;;;;;;5132747;27;43333;-80
2023/07/08 12:07:44;;;;;;;;;;;26.70;49.00;;;;;;5132143;27;43523;-78
2023/07/08 12:10:13;;;;;;;;;;;26.70;48.70;;;;;;5115289;27;42895;-79
2023/07/08 12:12:41;;;;;;;;;;;26.70;48.10;;;;;;5145350;27;44491;-78
2023/07/08 12:15:26;;;;;;;;;;;26.70;48.60;;;;;;5146889;27;42996;-79
2023/07/08 12:17:53;;;;;;;;;;;26.70;48.00;;;;;;5143035;27;43587;-79
2023/07/08 12:20:22;;;;;;;;;;;26.70;48.40;;;;;;5136183;27;42897;-79
2023/07/08 12:22:47;;;;;;;;;;;26.70;47.80;;;;;;5142878;27;42800;-79
2023/07/08 12:25:17;;;;;;;;;;;26.70;48.30;;;;;;5136280;27;42698;-80
2023/07/08 12:27:44;;;;;;;;;;;26.70;47.90;;;;;;5145532;27;42925;-80
2023/07/08 12:30:11;;;;;;;;;;;26.80;48.00;;;;;;5146923;27;42840;-80
2023/07/08 12:32:37;;;;;;;;;;;26.70;48.30;;;;;;5109532;27;44424;-79
2023/07/08 12:35:04;;;;;;;;;;;26.80;48.40;;;;;;5126762;27;42945;-79
2023/07/08 12:37:30;;;;;;;;;;;26.80;48.00;;;;;;5146139;27;42976;-78
2023/07/08 12:40:00;;;;;;;;;;;26.80;47.60;;;;;;5132175;27;42774;-78
2023/07/08 12:42:25;;;;;;;;;;;26.80;48.10;;;;;;5146612;27;43561;-78
2023/07/08 12:44:51;;;;;;;;;;;26.80;47.70;;;;;;5146197;27;43547;-78
2023/07/08 12:47:19;;;;;;;;;;;26.80;47.80;;;;;;5146015;27;42913;-80
2023/07/08 12:49:44;;;;;;;;;;;26.80;48.40;;;;;;5131804;27;42947;-80
2023/07/08 12:52:22;;;;;;;;;;;26.80;48.20;;;;;;5145691;27;42928;-77
2023/07/08 12:54:48;;;;;;;;;;;26.80;48.10;;;;;;5145752;27;42974;-78
2023/07/08 12:57:15;;;;;;;;;;;26.70;47.80;;;;;;5145917;27;43540;-78
2023/07/08 12:59:41;;;;;;;;;;;26.80;48.40;;;;;;5126486;27;43301;-78
2023/07/08 13:02:14;;;;;;;;;;;26.80;48.70;;;;;;5145707;27;42936;-80
2023/07/08 13:04:40;;;;;;;;;;;26.80;48.20;;;;;;5141079;27;43013;-79
2023/07/08 13:07:05;;;;;;;;;;;26.90;48.10;;;;;;5137794;27;43023;-80
2023/07/08 13:09:39;;;;;;;;;;;26.80;48.40;;;;;;5145941;27;42911;-78
2023/07/08 13:12:22;;;;;;;;;;;26.90;47.90;;;;;;5146175;27;43048;-79
2023/07/08 13:14:48;;;;;;;;;;;26.90;47.90;;;;;;5114888;27;43035;-78
2023/07/08 13:17:14;;;;;;;;;;;26.90;47.80;;;;;;5110992;27;45017;-79
2023/07/08 13:19:40;;;;;;;;;;;26.90;47.80;;;;;;5115994;27;43030;-78
2023/07/08 13:22:09;;;;;;;;;;;26.90;47.60;;;;;;5143505;27;43808;-79
2023/07/08 13:24:34;;;;;;;;;;;26.90;47.50;;;;;;5124411;27;42929;-80
2023/07/08 13:27:01;;;;;;;;;;;26.90;47.60;;;;;;5138404;27;43526;-80
2023/07/08 13:29:33;;;;;;;;;;;27.00;47.50;;;;;;5124995;27;42896;-79
2023/07/08 13:32:05;;;;;;;;;;;26.90;47.80;;;;;;5138208;27;43024;-78
2023/07/08 13:34:32;;;;;;;;;;;26.90;47.20;;;;;;5135778;27;43023;-79
2023/07/08 13:36:57;;;;;;;;;;;27.00;47.40;;;;;;5144474;27;43829;-80
2023/07/08 13:39:32;;;;;;;;;;;27.00;48.00;;;;;;5145426;27;42857;-78
2023/07/08 13:41:58;;;;;;;;;;;26.90;48.10;;;;;;5126459;27;43449;-80
2023/07/08 13:44:23;;;;;;;;;;;26.90;48.30;;;;;;5137350;27;42840;-80
2023/07/08 13:46:53;;;;;;;;;;;27.00;48.30;;;;;;5144735;27;42920;-79
2023/07/08 13:49:21;;;;;;;;;;;27.00;48.30;;;;;;5145469;27;42978;-78
2023/07/08 13:51:47;;;;;;;;;;;27.00;48.20;;;;;;5140912;27;43066;-80
2023/07/08 13:54:20;;;;;;;;;;;26.90;48.10;;;;;;5128324;27;43048;-79
2023/07/08 13:56:46;;;;;;;;;;;27.00;47.90;;;;;;5116502;27;44781;-79
2023/07/08 13:59:17;;;;;;;;;;;27.00;48.00;;;;;;5148279;27;43912;-78
2023/07/08 14:01:43;;;;;;;;;;;27.10;47.90;;;;;;5135950;27;42910;-78
2023/07/08 14:04:10;;;;;;;;;;;27.10;48.10;;;;;;5133983;27;42939;-80
2023/07/08 14:06:37;;;;;;;;;;;27.00;48.00;;;;;;5136152;27;43548;-80
2023/07/08 14:09:23;;;;;;;;;;;27.10;49.00;;;;;;5133512;27;42923;-79
2023/07/08 14:11:50;;;;;;;;;;;27.00;48.00;;;;;;5127616;27;43883;-79
2023/07/08 14:14:15;;;;;;;;;;;27.10;48.00;;;;;;5133711;27;42898;-80
2023/07/08 14:16:45;;;;;;;;;;;27.20;48.40;;;;;;5148706;27;42835;-79
2023/07/08 14:19:13;;;;;;;;;;;27.10;48.00;;;;;;5147767;27;43023;-78
2023/07/08 14:21:39;;;;;;;;;;;27.10;48.50;;;;;;5137427;27;42796;-79